createdAt,value
2022-09-17T00:00:02.023Z,9.64
2022-09-17T00:00:41.171Z,9.63
2022-09-17T00:01:19.197Z,9.64
2022-09-17T00:01:52.604Z,9.72
2022-09-17T00:02:25.517Z,9.69
2022-09-17T00:02:57.164Z,9.68
2022-09-17T00:03:29.225Z,9.70
2022-09-17T00:04:04.390Z,9.75
2022-09-17T00:04:36.225Z,9.73
2022-09-17T00:05:08.013Z,9.77
2022-09-17T00:05:39.563Z,9.73
2022-09-17T00:06:12.581Z,9.74
2022-09-17T00:06:44.146Z,9.79
2022-09-17T00:07:15.964Z,9.83
2022-09-17T00:07:47.483Z,9.79
2022-09-17T00:08:18.996Z,9.86
2022-09-17T00:08:51.146Z,9.84
2022-09-17T00:09:22.947Z,9.77
2022-09-17T00:09:54.453Z,9.85
2022-09-17T00:10:26.001Z,9.91
2022-09-17T00:10:57.951Z,9.88
2022-09-17T00:11:32.022Z,9.88
2022-09-17T00:12:03.940Z,9.89
2022-09-17T00:12:35.478Z,9.88
2022-09-17T00:13:07.735Z,9.89
2022-09-17T00:13:39.692Z,9.96
2022-09-17T00:14:16.342Z,9.91
2022-09-17T00:14:48.024Z,9.91
2022-09-17T00:15:19.737Z,9.93
2022-09-17T00:15:52.546Z,9.88
2022-09-17T00:16:33.719Z,9.87
2022-09-17T00:17:05.296Z,9.92
2022-09-17T00:17:36.825Z,9.93
2022-09-17T00:18:08.624Z,9.90
2022-09-17T00:18:41.874Z,9.87
2022-09-17T00:19:16.658Z,9.88
2022-09-17T00:19:49.853Z,9.88
2022-09-17T00:20:21.869Z,9.84
2022-09-17T00:20:54.414Z,9.91
2022-09-17T00:21:26.878Z,9.88
2022-09-17T00:21:58.395Z,9.91
2022-09-17T00:22:29.904Z,9.94
2022-09-17T00:23:01.385Z,9.91
2022-09-17T00:23:33.212Z,9.97
2022-09-17T00:24:06.024Z,9.97
2022-09-17T00:24:37.504Z,10.02
2022-09-17T00:25:09.126Z,10.00
2022-09-17T00:25:45.247Z,9.95
2022-09-17T00:26:16.790Z,9.98
2022-09-17T00:26:49.415Z,9.91
2022-09-17T00:27:21.083Z,9.95
2022-09-17T00:27:53.178Z,9.99
2022-09-17T00:28:25.031Z,10.04
2022-09-17T00:28:57.922Z,10.02
2022-09-17T00:29:29.467Z,10.00
2022-09-17T00:30:00.955Z,9.98
2022-09-17T00:30:32.496Z,10.00
2022-09-17T00:31:08.846Z,10.01
2022-09-17T00:31:40.861Z,9.99
2022-09-17T00:32:12.719Z,9.98
2022-09-17T00:32:44.294Z,9.96
2022-09-17T00:33:17.924Z,9.96
2022-09-17T00:33:49.460Z,10.03
2022-09-17T00:34:20.953Z,10.04
2022-09-17T00:34:52.784Z,10.00
2022-09-17T00:35:25.677Z,9.97
2022-09-17T00:36:01.401Z,9.98
2022-09-17T00:36:35.988Z,9.95
2022-09-17T00:37:07.557Z,9.98
2022-09-17T00:37:39.074Z,9.93
2022-09-17T00:38:11.229Z,9.94
2022-09-17T00:38:43.439Z,9.94
2022-09-17T00:39:16.253Z,9.88
2022-09-17T00:39:47.766Z,9.88
2022-09-17T00:40:20.656Z,9.89
2022-09-17T00:40:52.533Z,9.88
2022-09-17T00:41:26.154Z,9.88
2022-09-17T00:41:57.653Z,9.91
2022-09-17T00:42:29.239Z,9.94
2022-09-17T00:43:01.005Z,9.97
2022-09-17T00:43:34.967Z,9.94
2022-09-17T00:44:40.230Z,10.00
2022-09-17T00:45:12.414Z,9.93
2022-09-17T00:45:44.312Z,9.96
2022-09-17T00:46:34.925Z,10.10
2022-09-17T00:47:30.152Z,10.03
2022-09-17T00:48:03.917Z,9.99
2022-09-17T00:48:35.438Z,10.00
2022-09-17T00:49:19.233Z,9.98
2022-09-17T00:49:54.340Z,9.97
2022-09-17T00:50:30.363Z,9.96
2022-09-17T00:51:02.215Z,9.95
2022-09-17T00:51:37.037Z,9.95
2022-09-17T00:52:12.657Z,9.85
2022-09-17T00:52:48.258Z,9.88
2022-09-17T00:53:21.434Z,9.96
2022-09-17T00:53:52.984Z,9.88
2022-09-17T00:54:24.773Z,9.93
2022-09-17T00:55:13.985Z,9.95
2022-09-17T00:55:59.373Z,9.98
2022-09-17T00:56:33.278Z,9.95
2022-09-17T00:57:04.869Z,9.91
2022-09-17T00:57:36.655Z,9.93
2022-09-17T00:58:10.280Z,9.89
2022-09-17T00:58:42.112Z,10.01
2022-09-17T00:59:15.088Z,9.86
2022-09-17T00:59:46.727Z,9.84
2022-09-17T01:00:19.240Z,9.89
2022-09-17T01:00:50.792Z,9.76
2022-09-17T01:01:22.625Z,9.72
2022-09-17T01:01:54.459Z,9.71
2022-09-17T01:02:26.201Z,9.79
2022-09-17T01:02:58.538Z,9.88
2022-09-17T01:03:30.144Z,9.78
2022-09-17T01:04:01.968Z,9.75
2022-09-17T01:04:33.650Z,9.70
2022-09-17T01:05:06.496Z,9.75
2022-09-17T01:05:45.855Z,9.87
2022-09-17T01:06:20.374Z,9.82
2022-09-17T01:07:16.042Z,9.76
2022-09-17T01:07:57.765Z,9.76
2022-09-17T01:08:44.834Z,9.73
2022-09-17T01:09:40.856Z,9.73
2022-09-17T01:10:24.572Z,9.67
2022-09-17T01:11:15.709Z,9.71
2022-09-17T01:12:04.228Z,9.86
2022-09-17T01:12:43.839Z,9.77
2022-09-17T01:13:26.061Z,9.79
2022-09-17T01:14:25.911Z,9.77
2022-09-17T01:15:10.834Z,9.79
2022-09-17T01:15:42.574Z,9.81
2022-09-17T01:16:20.924Z,9.88
2022-09-17T01:17:10.763Z,10.00
2022-09-17T01:18:21.806Z,9.83
2022-09-17T01:19:25.699Z,9.85
2022-09-17T01:20:21.752Z,9.90
2022-09-17T01:21:13.199Z,9.85
2022-09-17T01:21:58.066Z,9.65
2022-09-17T01:22:54.465Z,9.58
2022-09-17T01:24:03.025Z,9.61
2022-09-17T01:24:55.006Z,9.69
2022-09-17T01:25:47.203Z,9.55
2022-09-17T01:26:30.634Z,9.46
2022-09-17T01:27:26.710Z,9.55
2022-09-17T01:28:19.725Z,9.59
2022-09-17T01:28:53.651Z,9.56
2022-09-17T01:29:46.959Z,9.52
2022-09-17T01:30:59.575Z,9.53
2022-09-17T01:31:42.505Z,9.56
2022-09-17T01:32:47.584Z,9.52
2022-09-17T01:33:23.656Z,9.57
2022-09-17T01:34:24.381Z,9.58
2022-09-17T01:35:05.322Z,9.61
2022-09-17T01:35:39.678Z,9.60
2022-09-17T01:36:21.096Z,9.58
2022-09-17T01:37:02.457Z,9.66
2022-09-17T01:37:37.746Z,9.60
2022-09-17T01:38:12.143Z,9.60
2022-09-17T01:38:49.761Z,9.54
2022-09-17T01:39:32.064Z,9.53
2022-09-17T01:40:06.364Z,9.51
2022-09-17T01:41:02.996Z,9.47
2022-09-17T01:41:43.003Z,9.44
2022-09-17T01:42:24.177Z,9.40
2022-09-17T01:43:17.897Z,9.42
2022-09-17T01:44:03.613Z,9.45
2022-09-17T01:44:49.715Z,9.35
2022-09-17T01:45:33.291Z,9.32
2022-09-17T01:46:37.032Z,9.26
2022-09-17T01:47:20.710Z,9.26
2022-09-17T01:47:57.026Z,9.24
2022-09-17T01:48:38.613Z,9.23
2022-09-17T01:49:11.486Z,9.23
2022-09-17T01:49:43.412Z,9.21
2022-09-17T01:50:20.394Z,9.22
2022-09-17T01:50:56.097Z,9.27
2022-09-17T01:51:30.845Z,9.27
2022-09-17T01:52:03.033Z,9.15
2022-09-17T01:52:36.253Z,9.14
2022-09-17T01:53:09.242Z,9.21
2022-09-17T01:53:54.164Z,9.17
2022-09-17T01:54:28.901Z,9.19
2022-09-17T01:55:04.763Z,9.11
2022-09-17T01:55:39.004Z,9.14
2022-09-17T01:56:14.390Z,9.15
2022-09-17T01:56:59.016Z,9.13
2022-09-17T01:57:36.800Z,9.24
2022-09-17T01:58:11.207Z,9.23
2022-09-17T01:58:47.263Z,9.24
2022-09-17T01:59:23.000Z,9.19
2022-09-17T02:00:03.197Z,9.17
2022-09-17T02:00:48.515Z,9.17
2022-09-17T02:01:22.229Z,9.16
2022-09-17T02:02:15.372Z,9.12
2022-09-17T02:03:13.280Z,9.22
2022-09-17T02:03:50.875Z,9.17
2022-09-17T02:04:30.608Z,9.18
2022-09-17T02:05:11.735Z,9.12
2022-09-17T02:05:50.333Z,9.14
2022-09-17T02:06:27.173Z,9.23
2022-09-17T02:07:04.099Z,9.22
2022-09-17T02:07:44.573Z,9.19
2022-09-17T02:08:17.315Z,9.16
2022-09-17T02:08:56.829Z,9.12
2022-09-17T02:09:34.052Z,9.13
2022-09-17T02:10:10.223Z,9.17
2022-09-17T02:10:45.667Z,9.16
2022-09-17T02:11:17.508Z,9.18
2022-09-17T02:11:56.238Z,9.15
2022-09-17T02:12:31.798Z,9.18
2022-09-17T02:13:09.400Z,9.14
2022-09-17T02:13:46.483Z,9.09
2022-09-17T02:14:24.982Z,9.07
2022-09-17T02:14:59.192Z,9.08
2022-09-17T02:15:33.660Z,9.14
2022-09-17T02:16:13.552Z,9.12
2022-09-17T02:16:50.414Z,9.09
2022-09-17T02:18:03.301Z,9.12
2022-09-17T02:18:41.255Z,9.12
2022-09-17T02:19:16.736Z,9.10
2022-09-17T02:19:48.408Z,9.16
2022-09-17T02:20:25.189Z,9.17
2022-09-17T02:21:12.069Z,9.19
2022-09-17T02:22:03.731Z,9.16
2022-09-17T02:22:42.243Z,9.17
2022-09-17T02:23:27.797Z,9.17
2022-09-17T02:24:11.087Z,9.19
2022-09-17T02:25:19.809Z,9.22
2022-09-17T02:26:00.907Z,9.18
2022-09-17T02:26:32.971Z,9.20
2022-09-17T02:27:08.238Z,9.24
2022-09-17T02:27:47.924Z,9.19
2022-09-17T02:28:28.012Z,9.17
2022-09-17T02:29:05.614Z,9.12
2022-09-17T02:29:39.393Z,9.13
2022-09-17T02:30:11.084Z,9.08
2022-09-17T02:30:42.957Z,9.10
2022-09-17T02:31:14.606Z,9.08
2022-09-17T02:31:46.334Z,9.08
2022-09-17T02:32:17.947Z,9.06
2022-09-17T02:32:49.852Z,9.02
2022-09-17T02:33:21.815Z,9.06
2022-09-17T02:33:57.413Z,9.04
2022-09-17T02:34:29.576Z,9.07
2022-09-17T02:35:01.080Z,9.07
2022-09-17T02:35:33.325Z,8.99
2022-09-17T02:36:05.419Z,8.98
2022-09-17T02:36:37.103Z,8.98
2022-09-17T02:37:08.822Z,8.95
2022-09-17T02:37:44.554Z,8.95
2022-09-17T02:38:26.039Z,8.96
2022-09-17T02:39:01.945Z,8.99
2022-09-17T02:39:33.607Z,8.99
2022-09-17T02:40:06.669Z,8.93
2022-09-17T02:40:50.342Z,8.98
2022-09-17T02:41:25.596Z,9.04
2022-09-17T02:42:27.849Z,9.04
2022-09-17T02:43:20.518Z,9.01
2022-09-17T02:44:01.305Z,8.91
2022-09-17T02:44:54.899Z,8.94
2022-09-17T02:46:03.567Z,8.90
2022-09-17T02:46:49.866Z,8.93
2022-09-17T02:47:40.333Z,8.95
2022-09-17T02:48:14.613Z,8.90
2022-09-17T02:49:01.546Z,8.90
2022-09-17T02:49:51.371Z,9.01
2022-09-17T02:50:28.975Z,8.99
2022-09-17T02:51:09.280Z,8.98
2022-09-17T02:52:07.451Z,8.96
2022-09-17T02:53:01.010Z,8.95
2022-09-17T02:54:10.153Z,8.94
2022-09-17T02:54:56.394Z,8.97
2022-09-17T02:55:51.176Z,9.09
2022-09-17T02:56:58.519Z,9.17
2022-09-17T02:57:37.103Z,9.27
2022-09-17T02:58:17.703Z,9.27
2022-09-17T02:59:02.371Z,9.27
2022-09-17T02:59:52.290Z,9.30
2022-09-17T03:00:24.740Z,9.32
2022-09-17T03:00:58.275Z,9.37
2022-09-17T03:01:35.097Z,9.35
2022-09-17T03:02:23.396Z,9.38
2022-09-17T03:03:09.800Z,9.41
2022-09-17T03:03:43.701Z,9.37
2022-09-17T03:04:17.300Z,9.38
2022-09-17T03:04:49.927Z,9.36
2022-09-17T03:05:22.531Z,9.38
2022-09-17T03:05:54.776Z,9.33
2022-09-17T03:06:26.272Z,9.36
2022-09-17T03:06:59.577Z,9.49
2022-09-17T03:07:32.641Z,9.43
2022-09-17T03:08:04.427Z,9.45
2022-09-17T03:08:40.129Z,9.46
2022-09-17T03:09:11.634Z,9.45
2022-09-17T03:09:43.583Z,9.45
2022-09-17T03:10:16.086Z,9.45
2022-09-17T03:10:50.374Z,9.48
2022-09-17T03:11:21.952Z,9.46
2022-09-17T03:11:53.440Z,9.46
2022-09-17T03:12:25.724Z,9.48
2022-09-17T03:12:57.245Z,9.53
2022-09-17T03:13:28.793Z,9.49
2022-09-17T03:14:00.428Z,9.50
2022-09-17T03:14:32.194Z,9.55
2022-09-17T03:15:04.722Z,9.54
2022-09-17T03:15:36.273Z,9.58
2022-09-17T03:16:08.213Z,9.54
2022-09-17T03:16:39.841Z,9.51
2022-09-17T03:17:11.927Z,9.60
2022-09-17T03:17:43.395Z,9.56
2022-09-17T03:18:15.347Z,9.56
2022-09-17T03:18:46.818Z,9.58
2022-09-17T03:19:18.517Z,9.57
2022-09-17T03:19:50.009Z,9.65
2022-09-17T03:20:21.523Z,9.63
2022-09-17T03:20:53.040Z,9.56
2022-09-17T03:21:24.561Z,9.58
2022-09-17T03:21:56.161Z,9.57
2022-09-17T03:22:27.803Z,9.57
2022-09-17T03:22:59.509Z,9.53
2022-09-17T03:23:31.062Z,9.58
2022-09-17T03:24:02.721Z,9.54
2022-09-17T03:24:34.250Z,9.57
2022-09-17T03:25:06.050Z,9.58
2022-09-17T03:25:37.540Z,9.55
2022-09-17T03:26:09.386Z,9.53
2022-09-17T03:26:40.862Z,9.47
2022-09-17T03:27:12.716Z,9.44
2022-09-17T03:27:44.345Z,9.45
2022-09-17T03:28:16.748Z,9.41
2022-09-17T03:28:48.288Z,9.36
2022-09-17T03:29:19.775Z,9.46
2022-09-17T03:29:51.280Z,9.43
2022-09-17T03:30:22.786Z,9.49
2022-09-17T03:30:54.438Z,9.46
2022-09-17T03:31:26.200Z,9.39
2022-09-17T03:31:57.807Z,9.37
2022-09-17T03:32:29.373Z,9.35
2022-09-17T03:33:01.068Z,9.29
2022-09-17T03:33:33.334Z,9.30
2022-09-17T03:34:05.103Z,9.30
2022-09-17T03:34:36.627Z,9.25
2022-09-17T03:35:08.395Z,9.30
2022-09-17T03:35:43.362Z,9.28
2022-09-17T03:36:14.843Z,9.22
2022-09-17T03:36:46.370Z,9.24
2022-09-17T03:37:17.869Z,9.29
2022-09-17T03:37:49.347Z,9.25
2022-09-17T03:38:20.896Z,9.17
2022-09-17T03:38:56.462Z,9.14
2022-09-17T03:39:53.037Z,9.07
2022-09-17T03:40:24.796Z,9.04
2022-09-17T03:40:58.205Z,9.01
2022-09-17T03:41:29.778Z,9.04
2022-09-17T03:42:01.280Z,9.03
2022-09-17T03:42:32.771Z,9.01
2022-09-17T03:43:04.702Z,9.05
2022-09-17T03:43:36.302Z,9.08
2022-09-17T03:44:07.943Z,9.07
2022-09-17T03:44:42.438Z,8.98
2022-09-17T03:45:16.787Z,9.08
2022-09-17T03:45:49.202Z,8.98
2022-09-17T03:46:21.103Z,8.95
2022-09-17T03:46:52.957Z,8.94
2022-09-17T03:47:24.576Z,9.06
2022-09-17T03:47:56.889Z,9.01
2022-09-17T03:48:29.641Z,8.98
2022-09-17T03:49:01.217Z,8.98
2022-09-17T03:49:33.019Z,8.96
2022-09-17T03:50:05.659Z,9.02
2022-09-17T03:50:37.139Z,9.07
2022-09-17T03:51:08.801Z,9.02
2022-09-17T03:51:40.301Z,9.11
2022-09-17T03:52:11.796Z,9.14
2022-09-17T03:52:43.970Z,9.07
2022-09-17T03:53:16.492Z,9.06
2022-09-17T03:53:48.284Z,9.01
2022-09-17T03:54:19.908Z,9.02
2022-09-17T03:54:51.404Z,9.07
2022-09-17T03:55:22.923Z,9.09
2022-09-17T03:55:57.464Z,9.05
2022-09-17T03:56:29.234Z,9.08
2022-09-17T03:57:00.771Z,9.18
2022-09-17T03:57:32.322Z,9.15
2022-09-17T03:58:04.204Z,9.17
2022-09-17T03:58:36.093Z,9.22
2022-09-17T03:59:07.589Z,9.25
2022-09-17T03:59:39.856Z,9.23
2022-09-17T04:00:12.822Z,9.24
2022-09-17T04:00:45.645Z,9.18
2022-09-17T04:01:17.311Z,9.17
2022-09-17T04:01:48.981Z,9.25
2022-09-17T04:02:20.848Z,9.18
2022-09-17T04:02:52.510Z,9.21
2022-09-17T04:03:25.573Z,9.32
2022-09-17T04:03:57.155Z,9.27
2022-09-17T04:04:28.773Z,9.30
2022-09-17T04:05:00.454Z,9.34
2022-09-17T04:05:32.027Z,9.34
2022-09-17T04:06:03.622Z,9.43
2022-09-17T04:06:35.205Z,9.40
2022-09-17T04:07:06.725Z,9.39
2022-09-17T04:07:40.896Z,9.44
2022-09-17T04:08:12.660Z,9.46
2022-09-17T04:08:44.475Z,9.49
2022-09-17T04:09:16.192Z,9.47
2022-09-17T04:09:47.679Z,9.48
2022-09-17T04:10:19.395Z,9.45
2022-09-17T04:10:51.951Z,9.45
2022-09-17T04:11:23.777Z,9.39
2022-09-17T04:11:55.283Z,9.44
2022-09-17T04:12:26.779Z,9.42
2022-09-17T04:12:58.356Z,9.39
2022-09-17T04:13:29.854Z,9.37
2022-09-17T04:14:01.500Z,9.45
2022-09-17T04:14:33.028Z,9.38
2022-09-17T04:15:04.930Z,9.35
2022-09-17T04:15:36.407Z,9.37
2022-09-17T04:16:07.992Z,9.39
2022-09-17T04:16:39.547Z,9.32
2022-09-17T04:17:12.080Z,9.28
2022-09-17T04:17:43.877Z,9.30
2022-09-17T04:18:15.659Z,9.32
2022-09-17T04:18:47.359Z,9.26
2022-09-17T04:19:18.960Z,9.25
2022-09-17T04:19:50.457Z,9.22
2022-09-17T04:20:22.016Z,9.30
2022-09-17T04:20:53.821Z,9.22
2022-09-17T04:21:25.312Z,9.20
2022-09-17T04:21:56.820Z,9.26
2022-09-17T04:22:28.281Z,9.15
2022-09-17T04:22:59.772Z,9.19
2022-09-17T04:23:31.533Z,9.12
2022-09-17T04:24:03.134Z,9.17
2022-09-17T04:24:34.690Z,9.14
2022-09-17T04:25:06.745Z,9.11
2022-09-17T04:25:38.610Z,9.14
2022-09-17T04:26:10.697Z,9.12
2022-09-17T04:26:42.509Z,9.13
2022-09-17T04:27:14.071Z,9.16
2022-09-17T04:27:45.992Z,9.13
2022-09-17T04:28:17.637Z,9.08
2022-09-17T04:28:49.163Z,9.17
2022-09-17T04:29:20.670Z,9.20
2022-09-17T04:29:52.164Z,9.23
2022-09-17T04:30:23.649Z,9.18
2022-09-17T04:30:55.260Z,9.13
2022-09-17T04:31:27.421Z,9.16
2022-09-17T04:31:58.928Z,9.16
2022-09-17T04:32:31.033Z,9.11
2022-09-17T04:33:02.853Z,9.15
2022-09-17T04:33:34.534Z,9.15
2022-09-17T04:34:06.183Z,9.15
2022-09-17T04:34:37.811Z,9.16
2022-09-17T04:35:09.508Z,9.13
2022-09-17T04:35:41.100Z,9.13
2022-09-17T04:36:12.601Z,9.15
2022-09-17T04:36:44.096Z,9.14
2022-09-17T04:37:16.175Z,9.16
2022-09-17T04:37:59.525Z,9.20
2022-09-17T04:38:31.025Z,9.08
2022-09-17T04:39:02.567Z,9.01
2022-09-17T04:39:34.119Z,9.06
2022-09-17T04:40:08.130Z,9.01
2022-09-17T04:40:41.624Z,9.10
2022-09-17T04:41:13.178Z,9.07
2022-09-17T04:41:44.694Z,9.08
2022-09-17T04:42:16.211Z,9.06
2022-09-17T04:42:47.912Z,9.06
2022-09-17T04:43:19.492Z,9.10
2022-09-17T04:43:51.903Z,9.14
2022-09-17T04:44:23.463Z,9.12
2022-09-17T04:44:54.965Z,9.15
2022-09-17T04:45:26.496Z,9.12
2022-09-17T04:45:57.972Z,9.09
2022-09-17T04:46:29.590Z,9.14
2022-09-17T04:47:01.227Z,9.03
2022-09-17T04:47:32.733Z,9.02
2022-09-17T04:48:04.719Z,9.06
2022-09-17T04:48:37.479Z,9.02
2022-09-17T04:49:08.938Z,8.96
2022-09-17T04:49:40.577Z,8.94
2022-09-17T04:50:12.152Z,9.06
2022-09-17T04:50:44.161Z,9.02
2022-09-17T04:51:15.661Z,8.98
2022-09-17T04:51:47.257Z,9.02
2022-09-17T04:52:18.774Z,9.11
2022-09-17T04:52:50.281Z,9.09
2022-09-17T04:53:21.792Z,9.15
2022-09-17T04:53:53.262Z,9.16
2022-09-17T04:54:24.844Z,9.16
2022-09-17T04:54:56.328Z,9.15
2022-09-17T04:55:27.960Z,9.22
2022-09-17T04:55:59.582Z,9.23
2022-09-17T04:56:31.122Z,9.25
2022-09-17T04:57:02.784Z,9.18
2022-09-17T04:57:34.288Z,9.15
2022-09-17T04:58:05.878Z,9.25
2022-09-17T04:58:37.447Z,9.24
2022-09-17T04:59:09.132Z,9.21
2022-09-17T04:59:40.684Z,9.21
2022-09-17T05:00:13.118Z,9.18
2022-09-17T05:00:44.841Z,9.15
2022-09-17T05:01:18.770Z,9.22
2022-09-17T05:01:50.510Z,9.23
2022-09-17T05:02:22.313Z,9.20
2022-09-17T05:02:55.368Z,9.11
2022-09-17T05:03:26.966Z,9.13
2022-09-17T05:03:58.596Z,9.12
2022-09-17T05:04:30.102Z,9.14
2022-09-17T05:05:01.619Z,9.10
2022-09-17T05:05:33.175Z,9.09
2022-09-17T05:06:05.085Z,9.17
2022-09-17T05:06:36.624Z,9.13
2022-09-17T05:07:11.978Z,9.05
2022-09-17T05:08:50.647Z,8.91
2022-09-17T05:09:22.155Z,8.92
2022-09-17T05:09:53.904Z,9.01
2022-09-17T05:10:26.332Z,9.04
2022-09-17T05:10:57.881Z,9.09
2022-09-17T05:12:00.332Z,9.04
2022-09-17T05:12:34.457Z,9.06
2022-09-17T05:13:06.420Z,9.06
2022-09-17T05:13:38.296Z,9.09
2022-09-17T05:14:09.791Z,9.07
2022-09-17T05:14:41.323Z,9.06
2022-09-17T05:15:12.843Z,9.06
2022-09-17T05:15:45.145Z,9.07
2022-09-17T05:16:16.840Z,9.11
2022-09-17T05:16:48.622Z,9.14
2022-09-17T05:17:20.097Z,9.11
2022-09-17T05:17:51.983Z,9.08
2022-09-17T05:18:24.016Z,9.09
2022-09-17T05:18:55.713Z,9.06
2022-09-17T05:19:27.304Z,9.08
2022-09-17T05:19:58.820Z,9.09
2022-09-17T05:20:31.006Z,9.06
2022-09-17T05:21:02.513Z,9.19
2022-09-17T05:21:34.042Z,9.17
2022-09-17T05:22:05.544Z,9.16
2022-09-17T05:22:41.815Z,9.19
2022-09-17T05:23:13.420Z,9.20
2022-09-17T05:23:44.926Z,9.25
2022-09-17T05:24:16.436Z,9.24
2022-09-17T05:24:48.006Z,9.24
2022-09-17T05:25:24.718Z,9.24
2022-09-17T05:26:02.676Z,9.21
2022-09-17T05:26:34.291Z,9.24
2022-09-17T05:27:06.896Z,9.20
2022-09-17T05:27:39.020Z,9.22
2022-09-17T05:28:10.584Z,9.21
2022-09-17T05:28:42.645Z,9.27
2022-09-17T05:29:14.182Z,9.21
2022-09-17T05:29:45.758Z,9.22
2022-09-17T05:30:17.333Z,9.23
2022-09-17T05:30:48.835Z,9.20
2022-09-17T05:31:20.590Z,9.17
2022-09-17T05:31:52.503Z,9.21
2022-09-17T05:32:24.060Z,9.27
2022-09-17T05:33:03.808Z,9.28
2022-09-17T05:33:35.315Z,9.26
2022-09-17T05:34:06.819Z,9.27
2022-09-17T05:34:38.477Z,9.23
2022-09-17T05:35:10.668Z,9.21
2022-09-17T05:35:44.624Z,9.19
2022-09-17T05:36:16.156Z,9.23
2022-09-17T05:36:47.802Z,9.17
2022-09-17T05:37:19.308Z,9.22
2022-09-17T05:37:50.863Z,9.18
2022-09-17T05:38:22.596Z,9.13
2022-09-17T05:38:54.088Z,9.17
2022-09-17T05:39:25.610Z,9.13
2022-09-17T05:39:57.364Z,9.12
2022-09-17T05:40:29.750Z,9.06
2022-09-17T05:41:05.352Z,9.06
2022-09-17T05:41:36.887Z,9.03
2022-09-17T05:42:08.393Z,9.06
2022-09-17T05:42:40.057Z,9.07
2022-09-17T05:43:12.218Z,9.08
2022-09-17T05:43:44.141Z,9.03
2022-09-17T05:44:18.088Z,9.05
2022-09-17T05:44:49.962Z,9.00
2022-09-17T05:45:21.806Z,8.96
2022-09-17T05:45:54.571Z,8.96
2022-09-17T05:46:26.191Z,9.02
2022-09-17T05:46:57.752Z,8.98
2022-09-17T05:47:29.902Z,9.01
2022-09-17T05:48:02.396Z,8.98
2022-09-17T05:48:34.016Z,9.08
2022-09-17T05:49:05.619Z,9.05
2022-09-17T05:49:37.196Z,9.07
2022-09-17T05:50:09.205Z,8.92
2022-09-17T05:50:41.461Z,8.90
2022-09-17T05:51:12.984Z,8.88
2022-09-17T05:51:44.551Z,8.89
2022-09-17T05:52:16.298Z,8.86
2022-09-17T05:52:47.828Z,8.94
2022-09-17T05:53:19.407Z,8.91
2022-09-17T05:53:50.916Z,8.90
2022-09-17T05:54:22.508Z,8.85
2022-09-17T05:54:54.011Z,8.91
2022-09-17T05:55:25.516Z,8.92
2022-09-17T05:55:58.094Z,8.95
2022-09-17T05:56:29.703Z,9.06
2022-09-17T05:57:01.796Z,9.06
2022-09-17T05:57:33.281Z,9.11
2022-09-17T05:58:15.966Z,9.18
2022-09-17T05:58:47.627Z,9.32
2022-09-17T05:59:19.203Z,9.38
2022-09-17T05:59:50.733Z,9.45
2022-09-17T06:00:22.290Z,9.45
2022-09-17T06:00:54.015Z,9.43
2022-09-17T06:01:25.821Z,9.45
2022-09-17T06:01:57.513Z,9.49
2022-09-17T06:02:29.108Z,9.58
2022-09-17T06:03:00.704Z,9.59
2022-09-17T06:03:32.290Z,9.64
2022-09-17T06:04:04.781Z,9.68
2022-09-17T06:04:36.301Z,9.79
2022-09-17T06:05:08.252Z,9.80
2022-09-17T06:05:40.451Z,9.82
2022-09-17T06:06:11.971Z,9.86
2022-09-17T06:06:43.816Z,9.91
2022-09-17T06:07:15.349Z,9.98
2022-09-17T06:07:46.876Z,9.99
2022-09-17T06:08:18.394Z,10.13
2022-09-17T06:08:49.883Z,10.15
2022-09-17T06:09:21.380Z,10.14
2022-09-17T06:09:52.915Z,10.12
2022-09-17T06:10:24.403Z,10.12
2022-09-17T06:11:00.208Z,10.15
2022-09-17T06:11:33.687Z,10.23
2022-09-17T06:12:05.715Z,10.25
2022-09-17T06:12:37.420Z,10.28
2022-09-17T06:13:09.028Z,10.17
2022-09-17T06:13:40.626Z,10.19
2022-09-17T06:14:12.224Z,10.26
2022-09-17T06:14:43.733Z,10.29
2022-09-17T06:15:15.263Z,10.22
2022-09-17T06:15:51.189Z,10.30
2022-09-17T06:16:24.465Z,10.31
2022-09-17T06:16:56.464Z,10.28
2022-09-17T06:17:28.501Z,10.35
2022-09-17T06:18:00.059Z,10.33
2022-09-17T06:18:31.702Z,10.35
2022-09-17T06:19:04.285Z,10.36
2022-09-17T06:19:35.905Z,10.35
2022-09-17T06:20:07.829Z,10.37
2022-09-17T06:20:39.359Z,10.39
2022-09-17T06:21:10.868Z,10.42
2022-09-17T06:21:42.385Z,10.46
2022-09-17T06:22:13.860Z,10.46
2022-09-17T06:22:45.471Z,10.48
2022-09-17T06:23:17.263Z,10.49
2022-09-17T06:23:52.043Z,10.54
2022-09-17T06:24:23.578Z,10.55
2022-09-17T06:24:55.132Z,10.64
2022-09-17T06:25:26.681Z,10.73
2022-09-17T06:25:59.512Z,10.72
2022-09-17T06:26:31.249Z,10.72
2022-09-17T06:27:02.847Z,10.80
2022-09-17T06:27:35.061Z,10.82
2022-09-17T06:28:06.548Z,10.93
2022-09-17T06:28:41.483Z,10.93
2022-09-17T06:29:15.222Z,10.98
2022-09-17T06:29:46.781Z,10.96
2022-09-17T06:30:18.500Z,11.05
2022-09-17T06:30:52.689Z,11.14
2022-09-17T06:31:24.290Z,11.14
2022-09-17T06:32:02.786Z,11.19
2022-09-17T06:32:34.466Z,11.16
2022-09-17T06:33:05.973Z,11.20
2022-09-17T06:33:37.795Z,11.28
2022-09-17T06:34:09.309Z,11.13
2022-09-17T06:34:41.164Z,11.15
2022-09-17T06:35:12.660Z,11.12
2022-09-17T06:35:44.200Z,11.09
2022-09-17T06:36:15.704Z,11.06
2022-09-17T06:36:48.902Z,11.05
2022-09-17T06:37:20.436Z,11.02
2022-09-17T06:37:51.960Z,11.08
2022-09-17T06:38:23.459Z,11.02
2022-09-17T06:38:55.056Z,11.08
2022-09-17T06:39:26.549Z,11.02
2022-09-17T06:39:59.494Z,10.95
2022-09-17T06:40:31.397Z,10.93
2022-09-17T06:41:03.464Z,11.00
2022-09-17T06:41:35.022Z,10.98
2022-09-17T06:42:08.953Z,11.07
2022-09-17T06:42:40.471Z,11.49
2022-09-17T06:43:12.282Z,11.88
2022-09-17T06:43:44.084Z,12.03
2022-09-17T06:44:16.020Z,12.05
2022-09-17T06:44:48.054Z,12.19
2022-09-17T06:45:19.716Z,12.52
2022-09-17T06:45:55.268Z,12.90
2022-09-17T06:46:27.104Z,12.85
2022-09-17T06:46:58.829Z,12.81
2022-09-17T06:47:30.388Z,12.72
2022-09-17T06:48:05.384Z,12.50
2022-09-17T06:48:37.600Z,12.41
2022-09-17T06:49:09.601Z,12.13
2022-09-17T06:49:41.173Z,12.04
2022-09-17T06:50:12.690Z,11.93
2022-09-17T06:50:44.247Z,11.86
2022-09-17T06:51:15.859Z,12.00
2022-09-17T06:51:47.360Z,12.27
2022-09-17T06:52:18.862Z,12.48
2022-09-17T06:52:52.187Z,12.83
2022-09-17T06:53:26.679Z,13.33
2022-09-17T06:53:58.865Z,13.85
2022-09-17T06:54:31.234Z,14.40
2022-09-17T06:55:02.781Z,14.82
2022-09-17T06:55:34.273Z,15.11
2022-09-17T06:56:07.191Z,15.53
2022-09-17T06:56:38.710Z,15.92
2022-09-17T06:57:10.200Z,16.32
2022-09-17T06:57:42.048Z,16.64
2022-09-17T06:58:13.633Z,16.97
2022-09-17T06:58:45.216Z,17.24
2022-09-17T06:59:17.771Z,17.53
2022-09-17T06:59:50.168Z,17.63
2022-09-17T07:00:21.732Z,17.95
2022-09-17T07:00:58.724Z,18.17
2022-09-17T07:01:30.286Z,18.09
2022-09-17T07:02:10.926Z,18.47
2022-09-17T07:02:42.579Z,18.72
2022-09-17T07:03:23.413Z,18.69
2022-09-17T07:03:55.367Z,19.05
2022-09-17T07:04:26.975Z,18.99
2022-09-17T07:04:58.502Z,19.36
2022-09-17T07:05:32.104Z,19.60
2022-09-17T07:06:07.183Z,19.68
2022-09-17T07:06:38.907Z,19.94
2022-09-17T07:07:10.664Z,19.97
2022-09-17T07:07:42.285Z,19.79
2022-09-17T07:08:13.798Z,20.14
2022-09-17T07:08:47.062Z,20.46
2022-09-17T07:09:18.967Z,20.74
2022-09-17T07:09:50.454Z,20.57
2022-09-17T07:10:23.457Z,20.40
2022-09-17T07:10:56.409Z,20.51
2022-09-17T07:11:30.207Z,19.87
2022-09-17T07:12:01.799Z,19.68
2022-09-17T07:12:33.472Z,19.75
2022-09-17T07:13:05.040Z,19.59
2022-09-17T07:13:36.584Z,19.74
2022-09-17T07:14:08.149Z,19.78
2022-09-17T07:14:39.652Z,19.85
2022-09-17T07:15:11.776Z,19.86
2022-09-17T07:15:43.518Z,19.99
2022-09-17T07:16:15.519Z,20.18
2022-09-17T07:16:47.240Z,20.15
2022-09-17T07:17:18.765Z,19.92
2022-09-17T07:17:50.469Z,20.15
2022-09-17T07:18:23.432Z,20.31
2022-09-17T07:18:54.970Z,20.41
2022-09-17T07:19:26.689Z,20.60
2022-09-17T07:19:58.214Z,20.48
2022-09-17T07:20:29.744Z,20.66
2022-09-17T07:21:05.748Z,20.64
2022-09-17T07:21:37.309Z,20.96
2022-09-17T07:22:09.303Z,21.16
2022-09-17T07:22:40.897Z,21.18
2022-09-17T07:23:12.380Z,21.40
2022-09-17T07:23:44.794Z,21.49
2022-09-17T07:24:16.575Z,21.59
2022-09-17T07:24:48.226Z,21.50
2022-09-17T07:25:19.734Z,21.38
2022-09-17T07:25:55.247Z,21.35
2022-09-17T07:26:27.042Z,21.55
2022-09-17T07:26:58.616Z,21.54
2022-09-17T07:27:31.393Z,21.67
2022-09-17T07:28:03.160Z,21.62
2022-09-17T07:28:35.106Z,21.23
2022-09-17T07:29:06.627Z,21.12
2022-09-17T07:29:38.344Z,20.96
2022-09-17T07:30:10.936Z,21.28
2022-09-17T07:30:42.408Z,21.42
2022-09-17T07:31:16.729Z,21.29
2022-09-17T07:31:48.528Z,21.40
2022-09-17T07:32:20.288Z,21.17
2022-09-17T07:32:51.824Z,21.17
2022-09-17T07:33:27.839Z,21.38
2022-09-17T07:33:59.520Z,21.01
2022-09-17T07:34:31.145Z,21.06
2022-09-17T07:35:02.699Z,20.93
2022-09-17T07:35:34.275Z,20.94
2022-09-17T07:36:07.908Z,21.12
2022-09-17T07:36:39.439Z,21.23
2022-09-17T07:37:10.951Z,21.23
2022-09-17T07:37:42.574Z,21.37
2022-09-17T07:38:14.103Z,21.36